sensor_id;sensor_type;location;lat;lon;timestamp;P1;durP1;ratioP1;P2;durP2;ratioP2
12925;SDS011;6529;50.566;9.774;2023-06-19T00:01:46;7.05;;;6.45;;
12925;SDS011;6529;50.566;9.774;2023-06-19T00:04:12;7.20;;;6.50;;
12925;SDS011;6529;50.566;9.774;2023-06-19T00:06:37;6.95;;;6.20;;
12925;SDS011;6529;50.566;9.774;2023-06-19T00:09:03;6.90;;;6.30;;
12925;SDS011;6529;50.566;9.774;2023-06-19T00:11:29;6.97;;;6.20;;
12925;SDS011;6529;50.566;9.774;2023-06-19T00:13:54;7.20;;;6.50;;
12925;SDS011;6529;50.566;9.774;2023-06-19T00:16:20;7.40;;;6.70;;
12925;SDS011;6529;50.566;9.774;2023-06-19T00:18:46;6.95;;;6.35;;
12925;SDS011;6529;50.566;9.774;2023-06-19T00:21:12;7.28;;;6.28;;
12925;SDS011;6529;50.566;9.774;2023-06-19T00:23:37;6.50;;;5.90;;
12925;SDS011;6529;50.566;9.774;2023-06-19T00:26:03;6.90;;;6.15;;
12925;SDS011;6529;50.566;9.774;2023-06-19T00:28:30;6.60;;;6.00;;
12925;SDS011;6529;50.566;9.774;2023-06-19T00:30:56;6.95;;;6.15;;
12925;SDS011;6529;50.566;9.774;2023-06-19T00:33:21;6.57;;;5.97;;
12925;SDS011;6529;50.566;9.774;2023-06-19T00:35:49;6.80;;;6.10;;
12925;SDS011;6529;50.566;9.774;2023-06-19T00:38:15;6.80;;;6.20;;
12925;SDS011;6529;50.566;9.774;2023-06-19T00:40:41;6.68;;;6.07;;
12925;SDS011;6529;50.566;9.774;2023-06-19T00:43:06;7.25;;;6.30;;
12925;SDS011;6529;50.566;9.774;2023-06-19T00:45:32;7.28;;;6.47;;
12925;SDS011;6529;50.566;9.774;2023-06-19T00:47:58;6.45;;;5.88;;
12925;SDS011;6529;50.566;9.774;2023-06-19T00:50:24;6.82;;;6.22;;
12925;SDS011;6529;50.566;9.774;2023-06-19T00:52:52;7.13;;;6.43;;
12925;SDS011;6529;50.566;9.774;2023-06-19T00:55:18;6.70;;;6.10;;
12925;SDS011;6529;50.566;9.774;2023-06-19T00:57:44;6.80;;;6.20;;
12925;SDS011;6529;50.566;9.774;2023-06-19T01:00:11;6.28;;;5.78;;
12925;SDS011;6529;50.566;9.774;2023-06-19T01:02:37;8.85;;;6.00;;
12925;SDS011;6529;50.566;9.774;2023-06-19T01:05:04;6.75;;;6.10;;
12925;SDS011;6529;50.566;9.774;2023-06-19T01:07:44;7.05;;;6.10;;
12925;SDS011;6529;50.566;9.774;2023-06-19T01:10:15;6.43;;;5.82;;
12925;SDS011;6529;50.566;9.774;2023-06-19T01:15:52;6.53;;;5.95;;
12925;SDS011;6529;50.566;9.774;2023-06-19T01:18:18;6.50;;;5.90;;
12925;SDS011;6529;50.566;9.774;2023-06-19T01:20:44;7.25;;;6.22;;
12925;SDS011;6529;50.566;9.774;2023-06-19T01:23:10;6.25;;;5.75;;
12925;SDS011;6529;50.566;9.774;2023-06-19T01:25:36;8.02;;;6.00;;
12925;SDS011;6529;50.566;9.774;2023-06-19T01:28:03;7.07;;;6.38;;
12925;SDS011;6529;50.566;9.774;2023-06-19T01:30:34;6.57;;;5.97;;
12925;SDS011;6529;50.566;9.774;2023-06-19T01:33:03;6.68;;;6.07;;
12925;SDS011;6529;50.566;9.774;2023-06-19T01:35:51;6.68;;;6.07;;
12925;SDS011;6529;50.566;9.774;2023-06-19T01:38:17;7.10;;;6.47;;
12925;SDS011;6529;50.566;9.774;2023-06-19T01:40:46;6.70;;;6.10;;
12925;SDS011;6529;50.566;9.774;2023-06-19T01:43:13;6.68;;;6.07;;
12925;SDS011;6529;50.566;9.774;2023-06-19T01:45:40;6.40;;;5.90;;
12925;SDS011;6529;50.566;9.774;2023-06-19T01:48:07;6.95;;;5.95;;
12925;SDS011;6529;50.566;9.774;2023-06-19T01:50:33;6.85;;;5.75;;
12925;SDS011;6529;50.566;9.774;2023-06-19T01:52:59;6.78;;;6.07;;
12925;SDS011;6529;50.566;9.774;2023-06-19T01:55:25;6.72;;;6.13;;
12925;SDS011;6529;50.566;9.774;2023-06-19T01:57:50;6.53;;;5.93;;
12925;SDS011;6529;50.566;9.774;2023-06-19T02:00:16;6.40;;;5.78;;
12925;SDS011;6529;50.566;9.774;2023-06-19T02:02:42;7.00;;;6.30;;
12925;SDS011;6529;50.566;9.774;2023-06-19T02:05:07;7.07;;;6.38;;
12925;SDS011;6529;50.566;9.774;2023-06-19T02:07:33;6.93;;;6.30;;
12925;SDS011;6529;50.566;9.774;2023-06-19T02:09:59;6.60;;;6.00;;
12925;SDS011;6529;50.566;9.774;2023-06-19T02:12:24;6.53;;;5.93;;
12925;SDS011;6529;50.566;9.774;2023-06-19T02:14:50;6.85;;;6.15;;
12925;SDS011;6529;50.566;9.774;2023-06-19T02:17:15;7.00;;;6.20;;
12925;SDS011;6529;50.566;9.774;2023-06-19T02:19:41;6.85;;;6.15;;
12925;SDS011;6529;50.566;9.774;2023-06-19T02:22:07;6.85;;;6.22;;
12925;SDS011;6529;50.566;9.774;2023-06-19T02:24:33;6.47;;;5.97;;
12925;SDS011;6529;50.566;9.774;2023-06-19T02:26:58;7.03;;;6.40;;
12925;SDS011;6529;50.566;9.774;2023-06-19T02:29:25;6.97;;;6.38;;
12925;SDS011;6529;50.566;9.774;2023-06-19T02:31:50;6.88;;;6.28;;
12925;SDS011;6529;50.566;9.774;2023-06-19T02:34:16;7.00;;;6.30;;
12925;SDS011;6529;50.566;9.774;2023-06-19T02:36:42;7.68;;;6.90;;
12925;SDS011;6529;50.566;9.774;2023-06-19T02:39:08;6.78;;;6.18;;
12925;SDS011;6529;50.566;9.774;2023-06-19T02:41:34;7.82;;;7.13;;
12925;SDS011;6529;50.566;9.774;2023-06-19T02:44:00;7.28;;;6.68;;
12925;SDS011;6529;50.566;9.774;2023-06-19T02:46:25;7.22;;;6.53;;
12925;SDS011;6529;50.566;9.774;2023-06-19T02:48:51;6.97;;;6.35;;
12925;SDS011;6529;50.566;9.774;2023-06-19T02:51:16;6.60;;;6.00;;
12925;SDS011;6529;50.566;9.774;2023-06-19T02:53:42;7.03;;;6.32;;
12925;SDS011;6529;50.566;9.774;2023-06-19T02:56:09;7.03;;;6.38;;
12925;SDS011;6529;50.566;9.774;2023-06-19T02:58:34;6.82;;;6.07;;
12925;SDS011;6529;50.566;9.774;2023-06-19T03:01:02;7.25;;;6.55;;
12925;SDS011;6529;50.566;9.774;2023-06-19T03:03:28;7.65;;;6.72;;
12925;SDS011;6529;50.566;9.774;2023-06-19T03:05:54;7.45;;;6.57;;
12925;SDS011;6529;50.566;9.774;2023-06-19T03:08:20;7.20;;;6.38;;
12925;SDS011;6529;50.566;9.774;2023-06-19T03:10:45;7.00;;;6.40;;
12925;SDS011;6529;50.566;9.774;2023-06-19T03:13:12;6.75;;;6.05;;
12925;SDS011;6529;50.566;9.774;2023-06-19T03:15:38;7.03;;;6.43;;
12925;SDS011;6529;50.566;9.774;2023-06-19T03:18:04;6.85;;;6.13;;
12925;SDS011;6529;50.566;9.774;2023-06-19T03:20:31;6.70;;;6.10;;
12925;SDS011;6529;50.566;9.774;2023-06-19T03:22:57;6.60;;;5.90;;
12925;SDS011;6529;50.566;9.774;2023-06-19T03:25:23;6.45;;;5.85;;
12925;SDS011;6529;50.566;9.774;2023-06-19T03:27:48;7.28;;;6.50;;
12925;SDS011;6529;50.566;9.774;2023-06-19T03:30:14;6.82;;;6.13;;
12925;SDS011;6529;50.566;9.774;2023-06-19T03:32:43;6.50;;;5.95;;
12925;SDS011;6529;50.566;9.774;2023-06-19T03:35:09;7.10;;;6.40;;
12925;SDS011;6529;50.566;9.774;2023-06-19T03:37:35;6.43;;;5.82;;
12925;SDS011;6529;50.566;9.774;2023-06-19T03:40:01;6.57;;;5.97;;
12925;SDS011;6529;50.566;9.774;2023-06-19T03:42:28;6.82;;;6.22;;
12925;SDS011;6529;50.566;9.774;2023-06-19T03:44:54;6.97;;;6.28;;
12925;SDS011;6529;50.566;9.774;2023-06-19T03:47:19;6.70;;;5.97;;
12925;SDS011;6529;50.566;9.774;2023-06-19T03:49:46;6.75;;;6.15;;
12925;SDS011;6529;50.566;9.774;2023-06-19T03:52:13;6.85;;;6.25;;
12925;SDS011;6529;50.566;9.774;2023-06-19T03:54:39;6.97;;;6.38;;
12925;SDS011;6529;50.566;9.774;2023-06-19T03:57:05;6.60;;;6.00;;
12925;SDS011;6529;50.566;9.774;2023-06-19T03:59:31;7.07;;;6.32;;
12925;SDS011;6529;50.566;9.774;2023-06-19T04:01:57;7.70;;;6.18;;
12925;SDS011;6529;50.566;9.774;2023-06-19T04:04:22;6.93;;;6.30;;
12925;SDS011;6529;50.566;9.774;2023-06-19T04:06:48;8.38;;;6.90;;
12925;SDS011;6529;50.566;9.774;2023-06-19T04:09:13;6.80;;;6.13;;
12925;SDS011;6529;50.566;9.774;2023-06-19T04:11:39;7.50;;;6.80;;
12925;SDS011;6529;50.566;9.774;2023-06-19T04:14:04;6.65;;;6.05;;
12925;SDS011;6529;50.566;9.774;2023-06-19T04:16:30;7.90;;;6.22;;
12925;SDS011;6529;50.566;9.774;2023-06-19T04:18:56;7.05;;;6.35;;
12925;SDS011;6529;50.566;9.774;2023-06-19T04:21:21;7.63;;;6.82;;
12925;SDS011;6529;50.566;9.774;2023-06-19T04:23:47;6.97;;;6.35;;
12925;SDS011;6529;50.566;9.774;2023-06-19T04:26:12;7.60;;;6.80;;
12925;SDS011;6529;50.566;9.774;2023-06-19T04:28:38;7.05;;;6.45;;
12925;SDS011;6529;50.566;9.774;2023-06-19T04:31:04;7.70;;;6.20;;
12925;SDS011;6529;50.566;9.774;2023-06-19T04:33:30;7.30;;;6.60;;
12925;SDS011;6529;50.566;9.774;2023-06-19T04:35:57;7.72;;;6.88;;
12925;SDS011;6529;50.566;9.774;2023-06-19T04:38:22;7.35;;;6.65;;
12925;SDS011;6529;50.566;9.774;2023-06-19T04:40:48;7.53;;;6.82;;
12925;SDS011;6529;50.566;9.774;2023-06-19T04:43:15;7.25;;;6.65;;
12925;SDS011;6529;50.566;9.774;2023-06-19T04:45:40;7.85;;;7.03;;
12925;SDS011;6529;50.566;9.774;2023-06-19T04:48:06;7.28;;;6.50;;
12925;SDS011;6529;50.566;9.774;2023-06-19T04:50:31;7.68;;;6.97;;
12925;SDS011;6529;50.566;9.774;2023-06-19T04:52:57;8.25;;;7.55;;
12925;SDS011;6529;50.566;9.774;2023-06-19T04:55:22;7.93;;;7.22;;
12925;SDS011;6529;50.566;9.774;2023-06-19T04:57:50;9.25;;;7.70;;
12925;SDS011;6529;50.566;9.774;2023-06-19T05:00:16;8.02;;;7.22;;
12925;SDS011;6529;50.566;9.774;2023-06-19T05:02:44;7.80;;;7.10;;
12925;SDS011;6529;50.566;9.774;2023-06-19T05:05:11;8.82;;;7.40;;
12925;SDS011;6529;50.566;9.774;2023-06-19T05:07:37;8.57;;;7.68;;
12925;SDS011;6529;50.566;9.774;2023-06-19T05:10:03;8.00;;;7.20;;
12925;SDS011;6529;50.566;9.774;2023-06-19T05:12:29;9.77;;;7.78;;
12925;SDS011;6529;50.566;9.774;2023-06-19T05:14:55;8.30;;;7.50;;
12925;SDS011;6529;50.566;9.774;2023-06-19T05:17:20;8.57;;;7.63;;
12925;SDS011;6529;50.566;9.774;2023-06-19T05:19:46;8.18;;;7.38;;
12925;SDS011;6529;50.566;9.774;2023-06-19T05:22:12;7.55;;;6.82;;
12925;SDS011;6529;50.566;9.774;2023-06-19T05:24:38;7.85;;;7.05;;
12925;SDS011;6529;50.566;9.774;2023-06-19T05:27:03;9.05;;;6.72;;
12925;SDS011;6529;50.566;9.774;2023-06-19T05:29:29;8.15;;;7.25;;
12925;SDS011;6529;50.566;9.774;2023-06-19T05:31:55;7.75;;;6.95;;
12925;SDS011;6529;50.566;9.774;2023-06-19T05:34:21;7.70;;;6.80;;
12925;SDS011;6529;50.566;9.774;2023-06-19T05:36:47;9.48;;;7.00;;
12925;SDS011;6529;50.566;9.774;2023-06-19T05:39:13;7.65;;;6.95;;
12925;SDS011;6529;50.566;9.774;2023-06-19T05:41:39;7.65;;;6.88;;
12925;SDS011;6529;50.566;9.774;2023-06-19T05:44:05;7.80;;;7.00;;
12925;SDS011;6529;50.566;9.774;2023-06-19T05:46:31;7.97;;;7.13;;
12925;SDS011;6529;50.566;9.774;2023-06-19T05:48:56;9.20;;;7.25;;
12925;SDS011;6529;50.566;9.774;2023-06-19T05:51:22;7.57;;;6.72;;
12925;SDS011;6529;50.566;9.774;2023-06-19T05:53:47;8.02;;;7.22;;
12925;SDS011;6529;50.566;9.774;2023-06-19T05:56:14;7.28;;;6.57;;
12925;SDS011;6529;50.566;9.774;2023-06-19T05:58:40;7.97;;;6.70;;
12925;SDS011;6529;50.566;9.774;2023-06-19T06:01:06;7.72;;;6.55;;
12925;SDS011;6529;50.566;9.774;2023-06-19T06:03:32;7.75;;;6.95;;
12925;SDS011;6529;50.566;9.774;2023-06-19T06:05:58;9.23;;;6.38;;
12925;SDS011;6529;50.566;9.774;2023-06-19T06:08:28;9.30;;;7.10;;
12925;SDS011;6529;50.566;9.774;2023-06-19T06:10:55;7.63;;;6.75;;
12925;SDS011;6529;50.566;9.774;2023-06-19T06:13:20;7.25;;;6.20;;
12925;SDS011;6529;50.566;9.774;2023-06-19T06:15:46;7.53;;;5.97;;
12925;SDS011;6529;50.566;9.774;2023-06-19T06:18:11;9.48;;;6.45;;
12925;SDS011;6529;50.566;9.774;2023-06-19T06:20:37;6.70;;;5.97;;
12925;SDS011;6529;50.566;9.774;2023-06-19T06:23:02;9.95;;;6.00;;
12925;SDS011;6529;50.566;9.774;2023-06-19T06:25:28;7.90;;;6.25;;
12925;SDS011;6529;50.566;9.774;2023-06-19T06:27:54;8.00;;;6.20;;
12925;SDS011;6529;50.566;9.774;2023-06-19T06:30:19;7.38;;;6.20;;
12925;SDS011;6529;50.566;9.774;2023-06-19T06:32:45;6.57;;;5.80;;
12925;SDS011;6529;50.566;9.774;2023-06-19T06:35:10;6.00;;;5.50;;
12925;SDS011;6529;50.566;9.774;2023-06-19T06:37:36;7.40;;;6.00;;
12925;SDS011;6529;50.566;9.774;2023-06-19T06:40:02;6.28;;;5.68;;
12925;SDS011;6529;50.566;9.774;2023-06-19T06:42:33;6.28;;;5.78;;
12925;SDS011;6529;50.566;9.774;2023-06-19T06:44:58;6.68;;;5.97;;
12925;SDS011;6529;50.566;9.774;2023-06-19T06:47:24;6.32;;;5.72;;
12925;SDS011;6529;50.566;9.774;2023-06-19T06:49:49;7.13;;;5.50;;
12925;SDS011;6529;50.566;9.774;2023-06-19T06:52:15;6.00;;;5.50;;
12925;SDS011;6529;50.566;9.774;2023-06-19T06:54:41;5.78;;;5.28;;
12925;SDS011;6529;50.566;9.774;2023-06-19T06:57:06;6.18;;;5.57;;
12925;SDS011;6529;50.566;9.774;2023-06-19T06:59:33;6.18;;;5.68;;
12925;SDS011;6529;50.566;9.774;2023-06-19T07:01:58;6.22;;;5.63;;
12925;SDS011;6529;50.566;9.774;2023-06-19T07:04:24;6.13;;;5.53;;
12925;SDS011;6529;50.566;9.774;2023-06-19T07:06:50;6.22;;;5.65;;
12925;SDS011;6529;50.566;9.774;2023-06-19T07:09:16;5.95;;;5.40;;
12925;SDS011;6529;50.566;9.774;2023-06-19T07:11:41;6.47;;;5.97;;
12925;SDS011;6529;50.566;9.774;2023-06-19T07:14:07;6.35;;;5.75;;
12925;SDS011;6529;50.566;9.774;2023-06-19T07:16:32;5.95;;;5.45;;
12925;SDS011;6529;50.566;9.774;2023-06-19T07:18:58;5.70;;;5.10;;
12925;SDS011;6529;50.566;9.774;2023-06-19T07:21:23;5.32;;;4.82;;
12925;SDS011;6529;50.566;9.774;2023-06-19T07:23:50;5.50;;;5.00;;
12925;SDS011;6529;50.566;9.774;2023-06-19T07:26:16;6.95;;;5.40;;
12925;SDS011;6529;50.566;9.774;2023-06-19T07:28:42;5.40;;;4.90;;
12925;SDS011;6529;50.566;9.774;2023-06-19T07:31:07;5.60;;;5.07;;
12925;SDS011;6529;50.566;9.774;2023-06-19T07:33:33;5.10;;;4.60;;
12925;SDS011;6529;50.566;9.774;2023-06-19T07:35:59;5.10;;;4.63;;
12925;SDS011;6529;50.566;9.774;2023-06-19T07:38:27;5.10;;;4.60;;
12925;SDS011;6529;50.566;9.774;2023-06-19T07:40:53;5.95;;;4.75;;
12925;SDS011;6529;50.566;9.774;2023-06-19T07:43:18;5.28;;;4.53;;
12925;SDS011;6529;50.566;9.774;2023-06-19T07:45:44;5.10;;;4.70;;
12925;SDS011;6529;50.566;9.774;2023-06-19T07:48:10;5.32;;;4.70;;
12925;SDS011;6529;50.566;9.774;2023-06-19T07:50:35;5.30;;;4.80;;
12925;SDS011;6529;50.566;9.774;2023-06-19T07:53:01;5.82;;;4.70;;
12925;SDS011;6529;50.566;9.774;2023-06-19T07:55:26;6.30;;;4.47;;
12925;SDS011;6529;50.566;9.774;2023-06-19T07:57:53;5.22;;;4.72;;
12925;SDS011;6529;50.566;9.774;2023-06-19T08:00:21;4.90;;;4.50;;
12925;SDS011;6529;50.566;9.774;2023-06-19T08:02:48;4.90;;;4.50;;
12925;SDS011;6529;50.566;9.774;2023-06-19T08:05:13;4.70;;;4.30;;
12925;SDS011;6529;50.566;9.774;2023-06-19T08:07:39;5.00;;;4.43;;
12925;SDS011;6529;50.566;9.774;2023-06-19T08:10:05;4.70;;;4.20;;
12925;SDS011;6529;50.566;9.774;2023-06-19T08:12:31;5.10;;;4.68;;
12925;SDS011;6529;50.566;9.774;2023-06-19T08:14:57;5.20;;;4.32;;
12925;SDS011;6529;50.566;9.774;2023-06-19T08:17:22;4.95;;;4.55;;
12925;SDS011;6529;50.566;9.774;2023-06-19T08:19:48;4.85;;;4.38;;
12925;SDS011;6529;50.566;9.774;2023-06-19T08:22:14;5.00;;;4.57;;
12925;SDS011;6529;50.566;9.774;2023-06-19T08:24:40;4.47;;;4.07;;
12925;SDS011;6529;50.566;9.774;2023-06-19T08:27:06;5.00;;;4.50;;
12925;SDS011;6529;50.566;9.774;2023-06-19T08:29:31;4.60;;;4.20;;
12925;SDS011;6529;50.566;9.774;2023-06-19T08:31:57;5.40;;;4.35;;
12925;SDS011;6529;50.566;9.774;2023-06-19T08:34:23;5.50;;;4.20;;
12925;SDS011;6529;50.566;9.774;2023-06-19T08:36:48;6.65;;;4.70;;
12925;SDS011;6529;50.566;9.774;2023-06-19T08:39:14;4.78;;;4.38;;
12925;SDS011;6529;50.566;9.774;2023-06-19T08:41:40;5.10;;;4.57;;
12925;SDS011;6529;50.566;9.774;2023-06-19T08:44:06;5.43;;;4.78;;
12925;SDS011;6529;50.566;9.774;2023-06-19T08:46:33;6.07;;;4.70;;
12925;SDS011;6529;50.566;9.774;2023-06-19T08:49:00;5.05;;;4.55;;
12925;SDS011;6529;50.566;9.774;2023-06-19T08:51:26;4.90;;;4.50;;
12925;SDS011;6529;50.566;9.774;2023-06-19T08:53:59;4.47;;;4.07;;
12925;SDS011;6529;50.566;9.774;2023-06-19T08:56:26;4.70;;;4.30;;
12925;SDS011;6529;50.566;9.774;2023-06-19T08:58:53;4.30;;;3.90;;
12925;SDS011;6529;50.566;9.774;2023-06-19T09:01:19;4.55;;;4.15;;
12925;SDS011;6529;50.566;9.774;2023-06-19T09:03:45;4.45;;;4.05;;
12925;SDS011;6529;50.566;9.774;2023-06-19T09:06:14;4.82;;;4.43;;
12925;SDS011;6529;50.566;9.774;2023-06-19T09:08:41;4.72;;;4.32;;
12925;SDS011;6529;50.566;9.774;2023-06-19T09:11:06;4.97;;;4.10;;
12925;SDS011;6529;50.566;9.774;2023-06-19T09:13:32;4.78;;;4.38;;
12925;SDS011;6529;50.566;9.774;2023-06-19T09:15:59;4.75;;;4.00;;
12925;SDS011;6529;50.566;9.774;2023-06-19T09:18:26;4.55;;;4.10;;
12925;SDS011;6529;50.566;9.774;2023-06-19T09:20:53;5.38;;;4.60;;
12925;SDS011;6529;50.566;9.774;2023-06-19T09:23:19;3.95;;;3.65;;
12925;SDS011;6529;50.566;9.774;2023-06-19T09:33:30;4.35;;;3.95;;
12925;SDS011;6529;50.566;9.774;2023-06-19T09:35:57;4.70;;;4.30;;
12925;SDS011;6529;50.566;9.774;2023-06-19T09:38:25;6.00;;;4.47;;
12925;SDS011;6529;50.566;9.774;2023-06-19T09:40:55;4.50;;;4.20;;
12925;SDS011;6529;50.566;9.774;2023-06-19T09:43:24;4.40;;;4.00;;
12925;SDS011;6529;50.566;9.774;2023-06-19T09:45:51;4.78;;;4.30;;
12925;SDS011;6529;50.566;9.774;2023-06-19T09:48:22;4.75;;;4.10;;
12925;SDS011;6529;50.566;9.774;2023-06-19T09:50:54;4.45;;;4.15;;
12925;SDS011;6529;50.566;9.774;2023-06-19T09:53:24;5.13;;;4.60;;
12925;SDS011;6529;50.566;9.774;2023-06-19T09:55:50;4.43;;;4.03;;
12925;SDS011;6529;50.566;9.774;2023-06-19T09:58:17;4.75;;;4.28;;
12925;SDS011;6529;50.566;9.774;2023-06-19T10:00:45;5.47;;;4.22;;
12925;SDS011;6529;50.566;9.774;2023-06-19T10:03:12;4.13;;;3.83;;
12925;SDS011;6529;50.566;9.774;2023-06-19T10:05:38;4.63;;;4.20;;
12925;SDS011;6529;50.566;9.774;2023-06-19T10:08:05;4.68;;;4.28;;
12925;SDS011;6529;50.566;9.774;2023-06-19T10:10:31;5.55;;;4.57;;
12925;SDS011;6529;50.566;9.774;2023-06-19T10:12:59;4.60;;;4.30;;
12925;SDS011;6529;50.566;9.774;2023-06-19T10:15:39;4.78;;;4.38;;
12925;SDS011;6529;50.566;9.774;2023-06-19T10:18:07;4.70;;;4.10;;
12925;SDS011;6529;50.566;9.774;2023-06-19T10:20:38;4.55;;;4.15;;
12925;SDS011;6529;50.566;9.774;2023-06-19T10:23:17;4.68;;;4.15;;
12925;SDS011;6529;50.566;9.774;2023-06-19T10:25:46;4.80;;;4.40;;
12925;SDS011;6529;50.566;9.774;2023-06-19T10:31:02;4.60;;;4.20;;
12925;SDS011;6529;50.566;9.774;2023-06-19T10:33:29;4.80;;;4.10;;
12925;SDS011;6529;50.566;9.774;2023-06-19T10:35:57;4.15;;;3.85;;
12925;SDS011;6529;50.566;9.774;2023-06-19T10:38:24;4.30;;;3.92;;
12925;SDS011;6529;50.566;9.774;2023-06-19T10:40:50;4.43;;;3.97;;
12925;SDS011;6529;50.566;9.774;2023-06-19T10:43:23;4.07;;;3.67;;
12925;SDS011;6529;50.566;9.774;2023-06-19T10:45:53;4.78;;;3.95;;
12925;SDS011;6529;50.566;9.774;2023-06-19T10:48:22;4.55;;;4.10;;
12925;SDS011;6529;50.566;9.774;2023-06-19T10:50:49;5.00;;;3.85;;
12925;SDS011;6529;50.566;9.774;2023-06-19T10:53:29;4.22;;;3.80;;
12925;SDS011;6529;50.566;9.774;2023-06-19T10:55:56;4.53;;;4.05;;
12925;SDS011;6529;50.566;9.774;2023-06-19T10:58:26;4.35;;;3.97;;
12925;SDS011;6529;50.566;9.774;2023-06-19T11:00:53;4.82;;;4.35;;
12925;SDS011;6529;50.566;9.774;2023-06-19T11:03:19;4.82;;;3.90;;
12925;SDS011;6529;50.566;9.774;2023-06-19T11:05:46;5.70;;;4.18;;
12925;SDS011;6529;50.566;9.774;2023-06-19T11:08:17;4.20;;;3.80;;
12925;SDS011;6529;50.566;9.774;2023-06-19T11:10:47;4.47;;;4.15;;
12925;SDS011;6529;50.566;9.774;2023-06-19T11:13:13;4.57;;;4.15;;
12925;SDS011;6529;50.566;9.774;2023-06-19T11:15:40;4.75;;;4.25;;
12925;SDS011;6529;50.566;9.774;2023-06-19T11:18:06;4.68;;;3.90;;
12925;SDS011;6529;50.566;9.774;2023-06-19T11:20:42;4.80;;;4.30;;
12925;SDS011;6529;50.566;9.774;2023-06-19T11:23:13;4.80;;;4.30;;
12925;SDS011;6529;50.566;9.774;2023-06-19T11:25:39;4.68;;;4.28;;
12925;SDS011;6529;50.566;9.774;2023-06-19T11:28:10;4.57;;;4.18;;
12925;SDS011;6529;50.566;9.774;2023-06-19T11:30:38;4.40;;;4.10;;
12925;SDS011;6529;50.566;9.774;2023-06-19T11:33:14;4.40;;;4.00;;
12925;SDS011;6529;50.566;9.774;2023-06-19T11:35:50;4.97;;;4.57;;
12925;SDS011;6529;50.566;9.774;2023-06-19T11:38:25;4.63;;;4.22;;
12925;SDS011;6529;50.566;9.774;2023-06-19T11:40:51;4.75;;;4.25;;
12925;SDS011;6529;50.566;9.774;2023-06-19T11:43:24;5.03;;;4.15;;
12925;SDS011;6529;50.566;9.774;2023-06-19T11:46:03;4.47;;;4.07;;
12925;SDS011;6529;50.566;9.774;2023-06-19T11:48:30;5.45;;;4.03;;
12925;SDS011;6529;50.566;9.774;2023-06-19T11:50:56;5.35;;;4.03;;
12925;SDS011;6529;50.566;9.774;2023-06-19T11:53:22;4.80;;;4.40;;
12925;SDS011;6529;50.566;9.774;2023-06-19T11:55:48;4.18;;;3.88;;
12925;SDS011;6529;50.566;9.774;2023-06-19T11:58:15;4.53;;;4.13;;
12925;SDS011;6529;50.566;9.774;2023-06-19T12:00:40;4.28;;;3.88;;
12925;SDS011;6529;50.566;9.774;2023-06-19T12:03:07;5.07;;;4.15;;
12925;SDS011;6529;50.566;9.774;2023-06-19T12:05:34;4.90;;;4.40;;
12925;SDS011;6529;50.566;9.774;2023-06-19T12:08:00;4.50;;;4.05;;
12925;SDS011;6529;50.566;9.774;2023-06-19T12:10:27;5.82;;;3.90;;
12925;SDS011;6529;50.566;9.774;2023-06-19T12:12:53;5.13;;;3.97;;
12925;SDS011;6529;50.566;9.774;2023-06-19T12:15:19;4.10;;;3.80;;
12925;SDS011;6529;50.566;9.774;2023-06-19T12:17:45;4.10;;;3.70;;
12925;SDS011;6529;50.566;9.774;2023-06-19T12:20:11;4.50;;;3.72;;
12925;SDS011;6529;50.566;9.774;2023-06-19T12:22:38;4.00;;;3.70;;
12925;SDS011;6529;50.566;9.774;2023-06-19T12:25:04;3.85;;;3.45;;
12925;SDS011;6529;50.566;9.774;2023-06-19T12:27:30;4.63;;;4.22;;
12925;SDS011;6529;50.566;9.774;2023-06-19T12:29:56;4.05;;;3.75;;
12925;SDS011;6529;50.566;9.774;2023-06-19T12:32:21;4.20;;;3.90;;
12925;SDS011;6529;50.566;9.774;2023-06-19T12:34:47;4.53;;;4.13;;
12925;SDS011;6529;50.566;9.774;2023-06-19T12:37:15;4.45;;;4.15;;
12925;SDS011;6529;50.566;9.774;2023-06-19T12:39:44;4.40;;;4.00;;
12925;SDS011;6529;50.566;9.774;2023-06-19T12:42:09;5.07;;;4.20;;
12925;SDS011;6529;50.566;9.774;2023-06-19T12:44:39;4.22;;;3.83;;
12925;SDS011;6529;50.566;9.774;2023-06-19T12:47:05;5.22;;;4.30;;
12925;SDS011;6529;50.566;9.774;2023-06-19T12:49:31;4.35;;;3.95;;
12925;SDS011;6529;50.566;9.774;2023-06-19T12:51:57;4.47;;;4.07;;
12925;SDS011;6529;50.566;9.774;2023-06-19T12:54:23;4.60;;;4.20;;
12925;SDS011;6529;50.566;9.774;2023-06-19T12:56:48;5.25;;;4.05;;
12925;SDS011;6529;50.566;9.774;2023-06-19T12:59:14;4.72;;;4.00;;
12925;SDS011;6529;50.566;9.774;2023-06-19T13:01:41;4.45;;;4.05;;
12925;SDS011;6529;50.566;9.774;2023-06-19T13:04:07;5.22;;;4.20;;
12925;SDS011;6529;50.566;9.774;2023-06-19T13:06:32;4.32;;;3.80;;
12925;SDS011;6529;50.566;9.774;2023-06-19T13:08:58;4.13;;;3.83;;
12925;SDS011;6529;50.566;9.774;2023-06-19T13:11:24;4.25;;;3.38;;
12925;SDS011;6529;50.566;9.774;2023-06-19T13:13:49;3.85;;;3.55;;
12925;SDS011;6529;50.566;9.774;2023-06-19T13:16:15;3.67;;;3.38;;
12925;SDS011;6529;50.566;9.774;2023-06-19T13:18:43;4.25;;;3.80;;
12925;SDS011;6529;50.566;9.774;2023-06-19T13:21:10;4.55;;;3.53;;
12925;SDS011;6529;50.566;9.774;2023-06-19T13:23:36;4.18;;;3.88;;
12925;SDS011;6529;50.566;9.774;2023-06-19T13:26:02;4.78;;;3.83;;
12925;SDS011;6529;50.566;9.774;2023-06-19T13:28:27;3.92;;;3.40;;
12925;SDS011;6529;50.566;9.774;2023-06-19T13:30:53;4.25;;;3.30;;
12925;SDS011;6529;50.566;9.774;2023-06-19T13:33:19;3.80;;;3.50;;
12925;SDS011;6529;50.566;9.774;2023-06-19T13:35:44;3.72;;;3.42;;
12925;SDS011;6529;50.566;9.774;2023-06-19T13:38:10;4.90;;;3.53;;
12925;SDS011;6529;50.566;9.774;2023-06-19T13:40:36;4.03;;;3.72;;
12925;SDS011;6529;50.566;9.774;2023-06-19T13:43:01;3.95;;;3.63;;
12925;SDS011;6529;50.566;9.774;2023-06-19T13:45:28;4.78;;;3.90;;
12925;SDS011;6529;50.566;9.774;2023-06-19T13:47:55;3.70;;;3.38;;
12925;SDS011;6529;50.566;9.774;2023-06-19T13:50:22;4.30;;;3.90;;
12925;SDS011;6529;50.566;9.774;2023-06-19T13:52:48;4.30;;;3.90;;
12925;SDS011;6529;50.566;9.774;2023-06-19T13:55:14;3.90;;;3.60;;
12925;SDS011;6529;50.566;9.774;2023-06-19T13:57:40;3.80;;;3.50;;
12925;SDS011;6529;50.566;9.774;2023-06-19T14:00:07;3.63;;;3.33;;
12925;SDS011;6529;50.566;9.774;2023-06-19T14:02:35;4.38;;;3.30;;
12925;SDS011;6529;50.566;9.774;2023-06-19T14:05:02;6.53;;;3.78;;
12925;SDS011;6529;50.566;9.774;2023-06-19T14:07:28;3.97;;;3.53;;
12925;SDS011;6529;50.566;9.774;2023-06-19T14:09:54;5.53;;;3.92;;
12925;SDS011;6529;50.566;9.774;2023-06-19T14:12:19;3.85;;;3.55;;
12925;SDS011;6529;50.566;9.774;2023-06-19T14:14:45;3.97;;;3.60;;
12925;SDS011;6529;50.566;9.774;2023-06-19T14:17:10;4.28;;;3.70;;
12925;SDS011;6529;50.566;9.774;2023-06-19T14:19:36;4.63;;;3.85;;
12925;SDS011;6529;50.566;9.774;2023-06-19T14:22:01;4.10;;;3.80;;
12925;SDS011;6529;50.566;9.774;2023-06-19T14:24:27;4.20;;;3.75;;
12925;SDS011;6529;50.566;9.774;2023-06-19T14:26:53;4.47;;;3.80;;
12925;SDS011;6529;50.566;9.774;2023-06-19T14:29:18;4.25;;;3.95;;
12925;SDS011;6529;50.566;9.774;2023-06-19T14:31:45;4.50;;;4.00;;
12925;SDS011;6529;50.566;9.774;2023-06-19T14:34:11;5.35;;;4.03;;
12925;SDS011;6529;50.566;9.774;2023-06-19T14:36:37;4.40;;;3.95;;
12925;SDS011;6529;50.566;9.774;2023-06-19T14:39:03;4.13;;;3.72;;
12925;SDS011;6529;50.566;9.774;2023-06-19T14:41:29;4.18;;;3.78;;
12925;SDS011;6529;50.566;9.774;2023-06-19T14:43:55;4.55;;;3.95;;
12925;SDS011;6529;50.566;9.774;2023-06-19T14:46:20;4.57;;;4.22;;
12925;SDS011;6529;50.566;9.774;2023-06-19T14:48:46;6.65;;;4.30;;
12925;SDS011;6529;50.566;9.774;2023-06-19T14:51:11;4.55;;;4.18;;
12925;SDS011;6529;50.566;9.774;2023-06-19T14:53:37;4.20;;;3.80;;
12925;SDS011;6529;50.566;9.774;2023-06-19T14:56:03;5.43;;;4.57;;
12925;SDS011;6529;50.566;9.774;2023-06-19T14:58:29;4.40;;;4.00;;
12925;SDS011;6529;50.566;9.774;2023-06-19T15:00:55;4.47;;;4.07;;
12925;SDS011;6529;50.566;9.774;2023-06-19T15:03:21;5.15;;;3.90;;
12925;SDS011;6529;50.566;9.774;2023-06-19T15:05:46;4.63;;;4.10;;
12925;SDS011;6529;50.566;9.774;2023-06-19T15:08:12;5.47;;;4.00;;
12925;SDS011;6529;50.566;9.774;2023-06-19T15:10:37;4.53;;;4.05;;